createdAt,value
2023-05-14T00:02:11.974Z,10.00
2023-05-14T00:04:41.050Z,9.98
2023-05-14T00:07:09.324Z,9.90
2023-05-14T00:09:37.710Z,9.90
2023-05-14T00:12:06.611Z,9.90
2023-05-14T00:14:34.512Z,9.88
2023-05-14T00:17:03.456Z,9.80
2023-05-14T00:19:31.464Z,9.80
2023-05-14T00:21:59.247Z,9.82
2023-05-14T00:24:27.174Z,9.90
2023-05-14T00:26:55.111Z,9.88
2023-05-14T00:29:23.292Z,9.80
2023-05-14T00:31:52.053Z,9.80
2023-05-14T00:34:19.947Z,9.80
2023-05-14T00:36:47.868Z,9.80
2023-05-14T00:39:15.711Z,9.80
2023-05-14T00:41:44.564Z,9.80
2023-05-14T00:44:12.384Z,9.80
2023-05-14T00:46:40.694Z,9.70
2023-05-14T00:49:08.717Z,9.70
2023-05-14T00:51:37.307Z,9.60
2023-05-14T00:54:06.568Z,9.60
2023-05-14T00:56:35.573Z,9.52
2023-05-14T00:59:03.803Z,9.46
2023-05-14T01:01:32.112Z,9.40
2023-05-14T01:04:01.123Z,9.30
2023-05-14T01:06:42.926Z,9.24
2023-05-14T01:09:28.295Z,9.20
2023-05-14T01:12:18.506Z,9.20
2023-05-14T01:14:53.696Z,9.20
2023-05-14T01:17:24.817Z,9.20
2023-05-14T01:19:54.292Z,9.20
2023-05-14T01:22:22.118Z,9.10
2023-05-14T01:24:50.916Z,9.10
2023-05-14T01:27:44.565Z,9.00
2023-05-14T01:30:26.146Z,8.90
2023-05-14T01:33:01.098Z,8.80
2023-05-14T01:35:31.170Z,8.80
2023-05-14T01:38:06.823Z,8.80
2023-05-14T01:40:37.029Z,8.80
2023-05-14T01:43:06.650Z,8.80
2023-05-14T01:45:36.742Z,8.80
2023-05-14T01:48:06.702Z,8.80
2023-05-14T01:50:34.644Z,8.80
2023-05-14T01:53:02.665Z,8.80
2023-05-14T01:55:31.649Z,8.80
2023-05-14T01:57:59.860Z,8.80
2023-05-14T02:00:27.807Z,8.70
2023-05-14T02:02:56.025Z,8.70
2023-05-14T02:05:23.914Z,8.70
2023-05-14T02:07:51.860Z,8.70
2023-05-14T02:10:19.654Z,8.70
2023-05-14T02:12:47.531Z,8.70
2023-05-14T02:15:15.550Z,8.70
2023-05-14T02:17:43.689Z,8.70
2023-05-14T02:20:12.863Z,8.70
2023-05-14T02:22:42.373Z,8.70
2023-05-14T02:25:10.684Z,8.70
2023-05-14T02:27:38.554Z,8.60
2023-05-14T02:30:08.034Z,8.60
2023-05-14T02:32:35.988Z,8.68
2023-05-14T02:35:06.677Z,8.70
2023-05-14T02:37:35.935Z,8.60
2023-05-14T02:40:04.529Z,8.60
2023-05-14T02:42:32.497Z,8.50
2023-05-14T02:45:00.543Z,8.46
2023-05-14T02:47:28.453Z,8.40
2023-05-14T02:49:56.247Z,8.40
2023-05-14T02:52:24.132Z,8.32
2023-05-14T02:54:52.067Z,8.30
2023-05-14T02:57:21.160Z,8.30
2023-05-14T02:59:49.153Z,8.30
2023-05-14T03:02:17.865Z,8.30
2023-05-14T03:04:47.004Z,8.24
2023-05-14T03:07:14.939Z,8.14
2023-05-14T03:09:43.590Z,8.10
2023-05-14T03:12:13.546Z,8.00
2023-05-14T03:14:41.418Z,8.10
2023-05-14T03:17:09.605Z,8.06
2023-05-14T03:19:37.878Z,8.08
2023-05-14T03:22:05.994Z,8.06
2023-05-14T03:24:34.945Z,8.00
2023-05-14T03:27:03.027Z,8.00
2023-05-14T03:29:30.865Z,8.00
2023-05-14T03:31:58.841Z,7.90
2023-05-14T03:34:26.691Z,7.82
2023-05-14T03:36:55.330Z,7.70
2023-05-14T03:39:23.693Z,7.68
2023-05-14T03:41:51.531Z,7.60
2023-05-14T03:44:19.748Z,7.70
2023-05-14T03:46:47.607Z,7.70
2023-05-14T03:49:16.395Z,7.70
2023-05-14T03:51:44.411Z,7.70
2023-05-14T03:54:12.350Z,7.70
2023-05-14T03:56:40.938Z,7.70
2023-05-14T03:59:08.824Z,7.80
2023-05-14T04:01:36.606Z,7.80
2023-05-14T04:04:05.016Z,7.76
2023-05-14T04:06:34.045Z,7.80
2023-05-14T04:09:02.486Z,7.90
2023-05-14T04:11:30.531Z,7.92
2023-05-14T04:13:58.401Z,8.00
2023-05-14T04:16:26.533Z,8.00
2023-05-14T04:18:54.869Z,8.10
2023-05-14T04:21:22.746Z,8.10
2023-05-14T04:23:51.655Z,8.10
2023-05-14T04:26:19.746Z,8.12
2023-05-14T04:28:47.715Z,8.20
2023-05-14T04:31:16.207Z,8.22
2023-05-14T04:33:44.266Z,8.30
2023-05-14T04:36:12.573Z,8.40
2023-05-14T04:38:40.344Z,8.40
2023-05-14T04:41:08.709Z,8.40
2023-05-14T04:43:37.076Z,8.40
2023-05-14T04:46:07.159Z,8.34
2023-05-14T04:48:35.047Z,8.40
2023-05-14T04:51:05.026Z,8.40
2023-05-14T04:53:34.757Z,8.50
2023-05-14T04:56:03.168Z,8.50
2023-05-14T04:58:34.631Z,8.60
2023-05-14T05:01:06.002Z,8.60
2023-05-14T05:03:34.107Z,8.60
2023-05-14T05:06:02.586Z,8.60
2023-05-14T05:08:30.917Z,8.70
2023-05-14T05:10:58.785Z,8.70
2023-05-14T05:13:26.637Z,8.70
2023-05-14T05:15:54.444Z,8.80
2023-05-14T05:18:22.485Z,8.80
2023-05-14T05:20:50.315Z,8.80
2023-05-14T05:23:18.358Z,8.90
2023-05-14T05:25:46.252Z,8.90
2023-05-14T05:28:14.183Z,9.00
2023-05-14T05:30:45.306Z,9.00
2023-05-14T05:33:13.461Z,9.00
2023-05-14T05:35:41.903Z,9.00
2023-05-14T05:38:10.296Z,9.00
2023-05-14T05:40:38.602Z,9.00
2023-05-14T05:43:06.477Z,9.00
2023-05-14T05:45:34.342Z,9.00
2023-05-14T05:48:02.429Z,9.08
2023-05-14T05:50:31.710Z,9.10
2023-05-14T05:53:01.281Z,9.12
2023-05-14T05:55:29.970Z,9.20
2023-05-14T05:57:58.131Z,9.30
2023-05-14T06:00:26.226Z,9.30
2023-05-14T06:02:56.549Z,9.40
2023-05-14T06:05:25.190Z,9.40
2023-05-14T06:07:53.813Z,9.44
2023-05-14T06:10:22.287Z,9.50
2023-05-14T06:12:50.431Z,9.60
2023-05-14T06:15:19.007Z,9.68
2023-05-14T06:17:46.906Z,9.70
2023-05-14T06:20:15.435Z,9.80
2023-05-14T06:22:44.972Z,9.82
2023-05-14T06:25:12.868Z,9.90
2023-05-14T06:27:42.300Z,10.00
2023-05-14T06:30:11.479Z,10.00
2023-05-14T06:32:39.439Z,10.10
2023-05-14T06:35:08.163Z,10.10
2023-05-14T06:37:38.427Z,10.20
2023-05-14T06:40:07.698Z,10.30
2023-05-14T06:42:35.841Z,10.40
2023-05-14T06:45:05.624Z,10.50
2023-05-14T06:47:34.802Z,10.60
2023-05-14T06:50:03.730Z,10.80
2023-05-14T06:52:31.688Z,10.90
2023-05-14T06:54:59.642Z,11.00
2023-05-14T06:57:30.095Z,11.10
2023-05-14T06:59:58.455Z,11.20
2023-05-14T07:02:26.302Z,11.30
2023-05-14T07:04:54.106Z,11.40
2023-05-14T07:07:21.869Z,11.40
2023-05-14T07:09:49.669Z,11.50
2023-05-14T07:12:17.468Z,11.58
2023-05-14T07:14:48.741Z,11.62
2023-05-14T07:17:17.091Z,11.70
2023-05-14T07:19:45.180Z,11.80
2023-05-14T07:22:13.240Z,11.90
2023-05-14T07:24:41.178Z,11.94
2023-05-14T07:27:09.597Z,12.00
2023-05-14T07:29:37.709Z,12.10
2023-05-14T07:32:08.737Z,12.14
2023-05-14T07:34:39.934Z,12.20
2023-05-14T07:37:08.045Z,12.30
2023-05-14T07:39:36.328Z,12.48
2023-05-14T07:42:05.516Z,12.50
2023-05-14T07:44:33.309Z,12.64
2023-05-14T07:47:01.226Z,12.74
2023-05-14T07:49:29.410Z,12.90
2023-05-14T07:51:57.319Z,13.00
2023-05-14T07:54:25.362Z,13.20
2023-05-14T07:56:53.409Z,13.32
2023-05-14T07:59:21.930Z,13.50
2023-05-14T08:01:51.210Z,13.60
2023-05-14T08:04:19.249Z,13.70
2023-05-14T08:06:47.385Z,13.84
2023-05-14T08:09:16.097Z,14.00
2023-05-14T08:11:44.106Z,14.10
2023-05-14T08:14:12.309Z,14.20
2023-05-14T08:16:41.364Z,14.24
2023-05-14T08:19:09.772Z,14.38
2023-05-14T08:21:37.584Z,14.50
2023-05-14T08:24:06.896Z,14.58
2023-05-14T08:26:35.049Z,14.60
2023-05-14T08:29:02.961Z,14.70
2023-05-14T08:31:32.000Z,14.80
2023-05-14T08:33:59.884Z,15.00
2023-05-14T08:36:27.856Z,15.10
2023-05-14T08:38:55.818Z,15.30
2023-05-14T08:41:25.547Z,15.40
2023-05-14T08:44:13.633Z,15.60
2023-05-14T08:46:42.334Z,15.78
2023-05-14T08:49:37.015Z,15.98
2023-05-14T08:52:06.104Z,16.20
2023-05-14T08:54:36.201Z,16.40
2023-05-14T08:57:05.545Z,16.60
2023-05-14T08:59:33.800Z,16.80
2023-05-14T09:02:05.225Z,17.00
2023-05-14T09:04:35.026Z,17.26
2023-05-14T09:07:04.169Z,17.50
2023-05-14T09:09:32.525Z,17.64
2023-05-14T09:12:02.362Z,17.88
2023-05-14T09:14:30.136Z,18.00
2023-05-14T09:16:58.185Z,18.20
2023-05-14T09:19:26.532Z,18.32
2023-05-14T09:21:59.126Z,18.50
2023-05-14T09:24:31.782Z,18.70
2023-05-14T09:27:04.436Z,18.80
2023-05-14T09:29:34.901Z,19.00
2023-05-14T09:32:06.518Z,19.00
2023-05-14T09:34:38.155Z,19.12
2023-05-14T09:37:08.952Z,19.30
2023-05-14T09:39:38.977Z,19.48
2023-05-14T09:42:08.393Z,19.58
2023-05-14T09:44:38.212Z,19.62
2023-05-14T09:47:08.427Z,19.80
2023-05-14T09:49:36.337Z,19.90
2023-05-14T09:52:07.153Z,20.00
2023-05-14T09:54:36.215Z,20.10
2023-05-14T09:57:04.101Z,20.20
2023-05-14T09:59:31.898Z,20.30
2023-05-14T10:02:01.017Z,20.38
2023-05-14T10:04:29.127Z,20.46
2023-05-14T10:06:57.606Z,20.60
2023-05-14T10:09:31.448Z,20.70
2023-05-14T10:12:01.464Z,20.80
2023-05-14T10:14:49.842Z,20.90
2023-05-14T10:17:22.174Z,21.04
2023-05-14T10:19:57.554Z,21.14
2023-05-14T10:22:33.657Z,21.20
2023-05-14T10:25:04.174Z,21.30
2023-05-14T10:27:32.612Z,21.40
2023-05-14T10:30:00.460Z,21.50
2023-05-14T10:32:33.160Z,21.60
2023-05-14T10:35:02.046Z,21.80
2023-05-14T10:37:31.125Z,21.90
2023-05-14T10:40:06.773Z,22.00
2023-05-14T10:42:43.425Z,22.00
2023-05-14T10:45:17.701Z,22.10
2023-05-14T10:47:47.531Z,22.20
2023-05-14T10:50:17.848Z,22.30
2023-05-14T10:52:46.349Z,22.20
2023-05-14T10:55:17.035Z,22.30
2023-05-14T10:57:46.722Z,22.40
2023-05-14T11:00:16.239Z,22.50
2023-05-14T11:02:45.743Z,22.60
2023-05-14T11:05:17.832Z,22.70
2023-05-14T11:07:50.094Z,22.80
2023-05-14T11:10:21.097Z,22.90
2023-05-14T11:12:51.621Z,23.00
2023-05-14T11:15:27.002Z,23.02
2023-05-14T11:17:56.612Z,23.04
2023-05-14T11:20:25.321Z,23.10
2023-05-14T11:22:53.613Z,23.08
2023-05-14T11:25:23.340Z,23.10
2023-05-14T11:27:52.370Z,23.16
2023-05-14T11:30:21.971Z,23.20
2023-05-14T11:32:51.436Z,23.20
2023-05-14T11:35:19.794Z,23.20
2023-05-14T11:37:52.753Z,23.30
2023-05-14T11:40:21.317Z,23.40
2023-05-14T11:42:53.425Z,23.46
2023-05-14T11:45:27.364Z,23.50
2023-05-14T11:47:56.061Z,23.50
2023-05-14T11:50:24.349Z,23.60
2023-05-14T11:52:57.521Z,23.66
2023-05-14T11:55:25.762Z,23.80
2023-05-14T11:57:54.414Z,23.90
2023-05-14T12:00:24.869Z,24.00
2023-05-14T12:02:54.753Z,24.10
2023-05-14T12:05:22.730Z,24.20
2023-05-14T12:07:51.032Z,24.20
2023-05-14T12:10:18.955Z,24.20
2023-05-14T12:12:49.121Z,24.38
2023-05-14T12:15:22.179Z,24.20
2023-05-14T12:17:51.977Z,24.20
2023-05-14T12:20:20.218Z,24.20
2023-05-14T12:22:48.097Z,24.10
2023-05-14T12:25:16.188Z,23.80
2023-05-14T12:27:46.442Z,23.60
2023-05-14T12:32:46.899Z,23.90
2023-05-14T12:35:14.794Z,24.10
2023-05-14T12:37:43.137Z,24.20
2023-05-14T12:40:11.684Z,24.22
2023-05-14T12:42:40.075Z,24.30
2023-05-14T12:45:08.864Z,24.20
2023-05-14T12:47:37.505Z,23.94
2023-05-14T12:50:06.646Z,23.72
2023-05-14T12:52:39.329Z,23.60
2023-05-14T12:55:09.783Z,23.70
2023-05-14T12:57:39.491Z,23.90
2023-05-14T13:00:14.173Z,24.00
2023-05-14T13:02:43.698Z,24.10
2023-05-14T13:05:12.927Z,24.30
2023-05-14T13:07:41.206Z,24.30
2023-05-14T13:10:10.178Z,24.10
2023-05-14T13:12:39.029Z,23.90
2023-05-14T13:15:07.778Z,23.70
2023-05-14T13:17:37.358Z,23.66
2023-05-14T13:20:06.387Z,23.90
2023-05-14T13:22:34.276Z,24.10
2023-05-14T13:25:03.886Z,24.20
2023-05-14T13:27:31.789Z,24.04
2023-05-14T13:30:06.171Z,23.90
2023-05-14T13:32:34.790Z,23.60
2023-05-14T13:35:02.665Z,23.50
2023-05-14T13:37:30.637Z,23.66
2023-05-14T13:39:58.608Z,23.80
2023-05-14T13:42:27.209Z,23.70
2023-05-14T13:44:56.497Z,23.48
2023-05-14T13:47:26.675Z,23.30
2023-05-14T13:49:56.876Z,23.20
2023-05-14T13:52:25.374Z,23.30
2023-05-14T13:54:53.573Z,23.62
2023-05-14T13:57:22.113Z,23.94
2023-05-14T13:59:49.991Z,24.20
2023-05-14T14:02:18.205Z,24.10
2023-05-14T14:04:46.100Z,23.82
2023-05-14T14:07:14.002Z,23.50
2023-05-14T14:09:41.825Z,23.20
2023-05-14T14:12:10.186Z,23.00
2023-05-14T14:14:38.065Z,22.78
2023-05-14T14:17:06.032Z,22.60
2023-05-14T14:19:33.927Z,22.50
2023-05-14T14:22:02.066Z,22.50
2023-05-14T14:24:32.155Z,22.80
2023-05-14T14:27:02.776Z,23.20
2023-05-14T14:29:33.093Z,23.60
2023-05-14T14:32:01.204Z,23.90
2023-05-14T14:34:30.709Z,24.10
2023-05-14T14:36:58.570Z,24.10
2023-05-14T14:39:32.460Z,24.00
2023-05-14T14:42:04.905Z,24.06
2023-05-14T14:44:32.977Z,24.20
2023-05-14T14:47:00.769Z,24.30
2023-05-14T14:49:33.337Z,24.40
2023-05-14T14:52:01.977Z,24.40
2023-05-14T14:54:30.241Z,24.46
2023-05-14T14:56:58.085Z,24.42
2023-05-14T14:59:26.010Z,24.42
2023-05-14T15:01:53.819Z,24.50
2023-05-14T15:04:23.141Z,24.50
2023-05-14T15:06:51.006Z,24.50
2023-05-14T15:09:18.899Z,24.50
2023-05-14T15:11:47.227Z,24.50
2023-05-14T15:14:15.143Z,24.60
2023-05-14T15:16:43.097Z,24.70
2023-05-14T15:19:11.291Z,24.70
2023-05-14T15:21:39.680Z,24.60
2023-05-14T15:24:12.655Z,24.60
2023-05-14T15:26:41.242Z,24.60
2023-05-14T15:29:09.100Z,24.52
2023-05-14T15:31:37.061Z,24.60
2023-05-14T15:34:05.350Z,24.50
2023-05-14T15:36:33.190Z,24.52
2023-05-14T15:39:01.206Z,24.50
2023-05-14T15:41:29.612Z,24.36
2023-05-14T15:43:58.663Z,24.20
2023-05-14T15:46:27.680Z,24.10
2023-05-14T15:48:56.229Z,24.10
2023-05-14T15:51:24.033Z,24.00
2023-05-14T15:53:54.230Z,24.00
2023-05-14T15:56:22.976Z,23.90
2023-05-14T15:58:52.713Z,23.80
2023-05-14T16:01:22.384Z,23.78
2023-05-14T16:03:50.453Z,23.70
2023-05-14T16:06:18.630Z,23.56
2023-05-14T16:08:49.653Z,23.50
2023-05-14T16:11:18.849Z,23.42
2023-05-14T16:13:46.946Z,23.40
2023-05-14T16:16:15.341Z,23.40
2023-05-14T16:18:44.025Z,23.40
2023-05-14T16:21:12.684Z,23.48
2023-05-14T16:23:40.880Z,23.40
2023-05-14T16:26:09.400Z,23.36
2023-05-14T16:28:41.722Z,23.30
2023-05-14T16:31:11.846Z,23.30
2023-05-14T16:33:40.087Z,23.36
2023-05-14T16:36:08.999Z,23.50
2023-05-14T16:38:41.448Z,23.60
2023-05-14T16:41:16.350Z,23.50
2023-05-14T16:43:45.745Z,23.50
2023-05-14T16:46:14.386Z,23.50
2023-05-14T16:48:43.488Z,23.40
2023-05-14T16:51:12.360Z,23.40
2023-05-14T16:53:40.405Z,23.30
2023-05-14T16:56:09.352Z,23.30
2023-05-14T16:58:37.313Z,23.20
2023-05-14T17:01:07.379Z,23.10
2023-05-14T17:03:37.717Z,23.10
2023-05-14T17:06:06.032Z,23.10
2023-05-14T17:08:35.657Z,23.20
2023-05-14T17:11:06.103Z,23.00
2023-05-14T17:13:33.648Z,22.88
2023-05-14T17:16:16.049Z,22.66
2023-05-14T17:18:42.815Z,22.50
2023-05-14T17:21:10.889Z,22.30
2023-05-14T17:23:38.699Z,22.26
2023-05-14T17:26:07.020Z,22.20
2023-05-14T17:28:36.746Z,22.10
2023-05-14T17:31:05.159Z,21.94
2023-05-14T17:33:33.081Z,21.80
2023-05-14T17:36:01.597Z,21.80
2023-05-14T17:38:29.605Z,21.78
2023-05-14T17:40:57.848Z,21.70
2023-05-14T17:43:26.006Z,21.60
2023-05-14T17:45:54.929Z,21.60
2023-05-14T17:48:24.172Z,21.50
2023-05-14T17:50:54.881Z,21.40
2023-05-14T17:53:22.704Z,21.24
2023-05-14T17:55:51.801Z,21.20
2023-05-14T17:58:19.756Z,21.00
2023-05-14T18:00:47.607Z,20.90
2023-05-14T18:03:16.214Z,20.80
2023-05-14T18:05:44.535Z,20.70
2023-05-14T18:08:12.428Z,20.60
2023-05-14T18:10:42.280Z,20.50
2023-05-14T18:13:12.468Z,20.40
2023-05-14T18:15:40.425Z,20.30
2023-05-14T18:18:08.954Z,20.30
2023-05-14T18:20:37.009Z,20.20
2023-05-14T18:23:04.940Z,20.10
2023-05-14T18:25:34.514Z,20.10
2023-05-14T18:28:02.441Z,20.00
2023-05-14T18:30:31.600Z,20.00
2023-05-14T18:32:59.984Z,19.90
2023-05-14T18:35:28.396Z,19.90
2023-05-14T18:37:56.464Z,19.80
2023-05-14T18:40:29.399Z,19.70
2023-05-14T18:42:58.202Z,19.60
2023-05-14T18:45:26.293Z,19.54
2023-05-14T18:47:55.565Z,19.40
2023-05-14T18:50:23.748Z,19.30
2023-05-14T18:52:52.499Z,19.30
2023-05-14T18:55:20.447Z,19.20
2023-05-14T18:57:48.435Z,19.10
2023-05-14T19:00:16.556Z,19.00
2023-05-14T19:02:45.019Z,18.90
2023-05-14T19:05:13.988Z,18.82
2023-05-14T19:07:43.063Z,18.80
2023-05-14T19:10:14.221Z,18.70
2023-05-14T19:12:44.071Z,18.60
2023-05-14T19:15:14.724Z,18.50
2023-05-14T19:17:43.999Z,18.42
2023-05-14T19:20:12.510Z,18.40
2023-05-14T19:22:40.468Z,18.30
2023-05-14T19:25:09.253Z,18.10
2023-05-14T19:27:38.413Z,18.00
2023-05-14T19:30:07.153Z,17.84
2023-05-14T19:32:37.864Z,17.70
2023-05-14T19:35:06.305Z,17.60
2023-05-14T19:37:34.551Z,17.46
2023-05-14T19:40:03.563Z,17.30
2023-05-14T19:42:33.948Z,17.20
2023-05-14T19:45:01.941Z,17.08
2023-05-14T19:47:30.134Z,17.00
2023-05-14T19:49:58.379Z,16.90
2023-05-14T19:52:26.242Z,16.80
2023-05-14T19:54:54.136Z,16.70
2023-05-14T19:57:21.943Z,16.70
2023-05-14T19:59:49.745Z,16.62
2023-05-14T20:02:21.900Z,16.60
2023-05-14T20:04:50.065Z,16.50
2023-05-14T20:07:18.939Z,16.46
2023-05-14T20:09:47.619Z,16.40
2023-05-14T20:12:16.826Z,16.30
2023-05-14T20:14:45.267Z,16.20
2023-05-14T20:17:13.478Z,16.20
2023-05-14T20:19:41.706Z,16.10
2023-05-14T20:22:11.368Z,16.10
2023-05-14T20:24:41.354Z,16.00
2023-05-14T20:27:09.755Z,16.00
2023-05-14T20:29:37.671Z,16.00
2023-05-14T20:32:09.963Z,15.90
2023-05-14T20:34:37.942Z,15.90
2023-05-14T20:37:06.876Z,15.90
2023-05-14T20:39:34.894Z,15.88
2023-05-14T20:42:02.707Z,15.82
2023-05-14T20:44:31.186Z,15.70
2023-05-14T20:46:59.650Z,15.70
2023-05-14T20:49:28.451Z,15.70
2023-05-14T20:51:56.316Z,15.70
2023-05-14T20:54:24.242Z,15.64
2023-05-14T20:56:54.294Z,15.60
2023-05-14T20:59:22.145Z,15.60
2023-05-14T21:01:51.087Z,15.60
2023-05-14T21:04:19.080Z,15.60
2023-05-14T21:06:48.562Z,15.58
2023-05-14T21:09:17.928Z,15.54
2023-05-14T21:11:45.994Z,15.58
2023-05-14T21:14:13.951Z,15.60
2023-05-14T21:16:43.540Z,15.60
2023-05-14T21:19:13.323Z,15.60
2023-05-14T21:21:43.206Z,15.60
2023-05-14T21:24:11.226Z,15.60
2023-05-14T21:26:40.399Z,15.60
2023-05-14T21:29:10.103Z,15.60
2023-05-14T21:31:39.345Z,15.60
2023-05-14T21:34:07.332Z,15.60
2023-05-14T21:36:35.273Z,15.60
2023-05-14T21:39:03.190Z,15.60
2023-05-14T21:41:32.534Z,15.56
2023-05-14T21:44:00.540Z,15.50
2023-05-14T21:46:29.127Z,15.50
2023-05-14T21:48:57.498Z,15.50
2023-05-14T21:51:25.543Z,15.50
2023-05-14T21:53:53.838Z,15.50
2023-05-14T21:56:22.654Z,15.40
2023-05-14T21:58:51.567Z,15.40
2023-05-14T22:01:19.840Z,15.40
2023-05-14T22:03:47.770Z,15.40
2023-05-14T22:06:15.631Z,15.40
2023-05-14T22:08:43.799Z,15.36
2023-05-14T22:11:12.469Z,15.30
2023-05-14T22:13:41.161Z,15.30
2023-05-14T22:16:13.710Z,15.30
2023-05-14T22:18:42.749Z,15.30
2023-05-14T22:21:10.603Z,15.20
2023-05-14T22:23:38.501Z,15.20
2023-05-14T22:26:06.276Z,15.20
2023-05-14T22:28:34.137Z,15.10
2023-05-14T22:31:02.219Z,15.10
2023-05-14T22:33:33.297Z,15.10
2023-05-14T22:36:01.276Z,15.00
2023-05-14T22:38:29.426Z,15.00
2023-05-14T22:40:57.300Z,15.00
2023-05-14T22:43:25.790Z,14.92
2023-05-14T22:45:53.631Z,14.90
2023-05-14T22:48:22.702Z,14.90
2023-05-14T22:50:51.900Z,14.90
2023-05-14T22:53:19.739Z,14.90
2023-05-14T22:55:47.669Z,14.90
2023-05-14T22:58:15.461Z,14.80
2023-05-14T23:00:45.281Z,14.80
2023-05-14T23:03:13.147Z,14.80
2023-05-14T23:05:41.100Z,14.70
2023-05-14T23:08:09.228Z,14.70
2023-05-14T23:10:37.209Z,14.70
2023-05-14T23:13:05.120Z,14.70
2023-05-14T23:15:33.483Z,14.60
2023-05-14T23:18:01.611Z,14.60
2023-05-14T23:20:30.796Z,14.60
2023-05-14T23:22:58.703Z,14.56
2023-05-14T23:25:29.145Z,14.50
2023-05-14T23:27:57.260Z,14.50
2023-05-14T23:30:25.188Z,14.40
2023-05-14T23:32:53.408Z,14.30
2023-05-14T23:35:21.588Z,14.30
2023-05-14T23:37:51.218Z,14.20
2023-05-14T23:40:18.993Z,14.20
2023-05-14T23:42:47.088Z,14.10
2023-05-14T23:45:15.296Z,14.10
2023-05-14T23:47:43.887Z,14.10
2023-05-14T23:50:12.112Z,14.10
2023-05-14T23:52:40.413Z,14.06
2023-05-14T23:55:08.832Z,14.00
2023-05-14T23:57:37.104Z,14.10
